Time;durP1;ratioP1;P1;durP2;ratioP2;P2;SDS_P1;SDS_P2;PMS_P1;PMS_P2;Temp;Humidity;BMP_temperature;BMP_pressure;BME280_temperature;BME280_humidity;BME280_pressure;Samples;Min_cycle;Max_cycle;Signal;HPM_P1;HPM_P2
2023/06/06 00:02:29;;;;;;;6.60;1.75;;;;;;;;;;10447034;28;20028;-81
2023/06/06 00:07:32;;;;;;;2.45;1.55;;;;;;;;;;10460863;28;20092;-75
2023/06/06 00:12:32;;;;;;;4.30;2.10;;;;;;;;;;10439422;28;20032;-78
2023/06/06 00:17:33;;;;;;;3.47;1.60;;;;;;;;;;10423301;28;20040;-79
2023/06/06 00:22:35;;;;;;;6.80;1.40;;;;;;;;;;10422524;28;20032;-79
2023/06/06 00:27:36;;;;;;;3.17;1.55;;;;;;;;;;10441593;22;20056;-86
2023/06/06 00:32:36;;;;;;;5.40;1.70;;;;;;;;;;10513098;28;20017;-86
2023/06/06 00:37:36;;;;;;;2.80;1.57;;;;;;;;;;10494488;28;20293;-86
2023/06/06 00:42:40;;;;;;;8.50;1.50;;;;;;;;;;10498325;28;20210;-85
2023/06/06 00:47:46;;;;;;;4.50;1.08;;;;;;;;;;10503945;28;20073;-87
2023/06/06 00:52:49;;;;;;;2.65;1.65;;;;;;;;;;10505022;28;20040;-85
2023/06/06 00:57:51;;;;;;;3.22;1.58;;;;;;;;;;10512831;28;20295;-87
2023/06/06 01:02:52;;;;;;;13.15;1.52;;;;;;;;;;10480735;28;20383;-89
2023/06/06 01:07:53;;;;;;;2.92;1.38;;;;;;;;;;10480299;28;20032;-88
2023/06/06 01:13:03;;;;;;;2.97;1.70;;;;;;;;;;10463031;28;20289;-89
2023/06/06 01:18:04;;;;;;;3.90;1.30;;;;;;;;;;10482219;28;20016;-88
2023/06/06 01:23:05;;;;;;;4.18;0.95;;;;;;;;;;10468774;28;20025;-87
2023/06/06 01:28:13;;;;;;;5.60;1.67;;;;;;;;;;10495512;28;20326;-89
2023/06/06 01:33:19;;;;;;;4.80;1.23;;;;;;;;;;10510080;28;20555;-82
2023/06/06 01:38:20;;;;;;;2.55;1.17;;;;;;;;;;10503626;28;20017;-82
2023/06/06 01:43:22;;;;;;;2.40;1.15;;;;;;;;;;10468517;28;20341;-82
2023/06/06 01:48:23;;;;;;;3.42;1.10;;;;;;;;;;10473923;28;20088;-84
2023/06/06 01:53:26;;;;;;;4.43;1.52;;;;;;;;;;10479910;28;20035;-86
2023/06/06 01:58:26;;;;;;;3.33;1.00;;;;;;;;;;10482949;28;20020;-87
2023/06/06 02:03:28;;;;;;;1.47;1.23;;;;;;;;;;10465814;28;20333;-88
2023/06/06 02:08:28;;;;;;;2.83;1.15;;;;;;;;;;10483308;28;20311;-88
2023/06/06 02:13:29;;;;;;;5.23;1.20;;;;;;;;;;10480790;28;20027;-88
2023/06/06 02:18:30;;;;;;;1.50;0.80;;;;;;;;;;10466759;28;20350;-88
2023/06/06 02:23:30;;;;;;;2.15;0.98;;;;;;;;;;10467936;28;20107;-87
2023/06/06 02:28:30;;;;;;;2.90;1.10;;;;;;;;;;10486037;28;20064;-87
2023/06/06 02:33:32;;;;;;;2.30;1.30;;;;;;;;;;10459786;28;20024;-86
2023/06/06 02:38:32;;;;;;;4.40;1.17;;;;;;;;;;10472459;28;20027;-88
2023/06/06 02:43:35;;;;;;;2.85;1.48;;;;;;;;;;10467061;28;20323;-85
2023/06/06 02:48:35;;;;;;;12.43;1.50;;;;;;;;;;10472092;28;20039;-76
2023/06/06 02:53:36;;;;;;;3.28;1.27;;;;;;;;;;10482743;28;20028;-87
2023/06/06 02:58:42;;;;;;;2.67;1.27;;;;;;;;;;10470706;28;20017;-88
2023/06/06 03:03:42;;;;;;;2.40;1.58;;;;;;;;;;10472275;28;20199;-87
2023/06/06 03:08:43;;;;;;;3.53;1.30;;;;;;;;;;10454832;28;20052;-89
2023/06/06 03:13:47;;;;;;;13.57;2.85;;;;;;;;;;10471880;28;20031;-87
2023/06/06 03:18:47;;;;;;;3.50;1.15;;;;;;;;;;10495396;28;20016;-89
2023/06/06 03:23:48;;;;;;;4.80;1.38;;;;;;;;;;10475136;28;20016;-87
2023/06/06 03:28:48;;;;;;;4.20;1.07;;;;;;;;;;10474113;28;20032;-86
2023/06/06 03:33:48;;;;;;;3.40;1.65;;;;;;;;;;10487512;28;20283;-86
2023/06/06 03:38:49;;;;;;;6.28;1.60;;;;;;;;;;10501937;28;20210;-86
2023/06/06 03:43:49;;;;;;;8.35;1.50;;;;;;;;;;10479352;28;20024;-88
2023/06/06 03:49:10;;;;;;;5.63;1.58;;;;;;;;;;10475472;28;20326;-88
2023/06/06 03:54:11;;;;;;;2.30;1.35;;;;;;;;;;10502569;28;20061;-87
2023/06/06 03:59:14;;;;;;;2.90;1.30;;;;;;;;;;10519405;28;20054;-87
2023/06/06 04:04:16;;;;;;;2.70;1.23;;;;;;;;;;10519946;28;20025;-87
2023/06/06 04:09:18;;;;;;;2.95;1.30;;;;;;;;;;10501483;28;20040;-86
2023/06/06 04:14:22;;;;;;;2.05;1.08;;;;;;;;;;10497567;28;20025;-86
2023/06/06 04:19:23;;;;;;;8.30;1.55;;;;;;;;;;10490800;28;20040;-86
2023/06/06 04:24:24;;;;;;;8.20;1.65;;;;;;;;;;10483150;28;20314;-87
2023/06/06 04:29:24;;;;;;;3.60;1.33;;;;;;;;;;10481796;28;20095;-84
2023/06/06 04:34:29;;;;;;;5.70;1.40;;;;;;;;;;10491678;28;20043;-86
2023/06/06 04:39:33;;;;;;;6.18;1.40;;;;;;;;;;10461915;28;20207;-87
2023/06/06 04:44:34;;;;;;;5.47;1.67;;;;;;;;;;10485220;28;20028;-86
2023/06/06 04:49:39;;;;;;;8.18;1.73;;;;;;;;;;10506417;22;20630;-83
2023/06/06 04:54:41;;;;;;;3.13;1.92;;;;;;;;;;10464675;28;20469;-82
2023/06/06 04:59:50;;;;;;;6.25;1.92;;;;;;;;;;10466507;28;20039;-80
2023/06/06 05:04:53;;;;;;;4.18;2.03;;;;;;;;;;10459614;28;20071;-79
2023/06/06 05:09:54;;;;;;;5.00;2.33;;;;;;;;;;10464205;28;20021;-75
2023/06/06 05:14:54;;;;;;;4.20;1.55;;;;;;;;;;10477895;28;20032;-79
2023/06/06 05:19:55;;;;;;;7.57;1.95;;;;;;;;;;10466012;28;20024;-76
2023/06/06 05:24:55;;;;;;;4.03;1.70;;;;;;;;;;10466089;28;20321;-79
2023/06/06 05:29:56;;;;;;;5.97;1.52;;;;;;;;;;10481182;28;20107;-81
2023/06/06 05:34:57;;;;;;;11.73;1.70;;;;;;;;;;10453632;28;20108;-82
2023/06/06 05:39:59;;;;;;;2.38;1.50;;;;;;;;;;10441174;28;20094;-77
2023/06/06 05:44:59;;;;;;;2.30;1.33;;;;;;;;;;10464747;28;20089;-79
2023/06/06 05:49:59;;;;;;;3.92;1.50;;;;;;;;;;10474290;28;20048;-81
2023/06/06 05:55:02;;;;;;;6.60;2.00;;;;;;;;;;10481399;28;20024;-76
2023/06/06 06:00:05;;;;;;;7.82;1.75;;;;;;;;;;10468258;28;20166;-75
2023/06/06 06:05:05;;;;;;;3.05;1.20;;;;;;;;;;10474306;28;20477;-76
2023/06/06 06:10:07;;;;;;;6.70;1.50;;;;;;;;;;10490458;28;20016;-78
2023/06/06 06:15:08;;;;;;;4.25;1.38;;;;;;;;;;10465242;28;20374;-83
2023/06/06 06:20:09;;;;;;;9.98;1.67;;;;;;;;;;10463650;28;20402;-77
2023/06/06 06:25:12;;;;;;;3.05;1.50;;;;;;;;;;10465916;28;20048;-79
2023/06/06 06:30:14;;;;;;;7.78;1.50;;;;;;;;;;10482338;28;20101;-77
2023/06/06 06:35:20;;;;;;;4.68;1.40;;;;;;;;;;10463353;28;20052;-80
2023/06/06 06:40:22;;;;;;;4.13;1.33;;;;;;;;;;10425278;28;20041;-79
2023/06/06 06:45:26;;;;;;;4.65;1.40;;;;;;;;;;10456975;28;20029;-81
2023/06/06 06:50:27;;;;;;;3.83;1.17;;;;;;;;;;10453760;28;20048;-77
2023/06/06 06:55:28;;;;;;;4.78;1.77;;;;;;;;;;10469103;28;20028;-83
2023/06/06 07:00:28;;;;;;;2.73;1.23;;;;;;;;;;10452190;28;20020;-77
2023/06/06 07:05:28;;;;;;;3.20;1.42;;;;;;;;;;10440831;28;20028;-81
2023/06/06 07:10:29;;;;;;;2.27;1.40;;;;;;;;;;10456760;22;20049;-77
2023/06/06 07:15:29;;;;;;;7.85;1.48;;;;;;;;;;10475523;28;20092;-78
2023/06/06 07:20:29;;;;;;;8.70;1.88;;;;;;;;;;10456856;28;20119;-78
2023/06/06 07:25:30;;;;;;;2.60;1.50;;;;;;;;;;10478640;28;20082;-75
2023/06/06 07:30:30;;;;;;;9.27;1.75;;;;;;;;;;10481335;28;20198;-78
2023/06/06 07:35:32;;;;;;;7.07;1.35;;;;;;;;;;10462245;28;20028;-77
2023/06/06 07:40:32;;;;;;;4.05;1.40;;;;;;;;;;10482529;28;20194;-76
2023/06/06 07:45:32;;;;;;;4.55;1.40;;;;;;;;;;10473831;28;20056;-75
2023/06/06 07:50:33;;;;;;;6.45;1.50;;;;;;;;;;10466126;28;20088;-76
2023/06/06 07:55:33;;;;;;;6.17;1.37;;;;;;;;;;10474690;28;20405;-75
2023/06/06 08:00:34;;;;;;;3.78;1.42;;;;;;;;;;10468067;28;20100;-80
2023/06/06 08:05:36;;;;;;;2.80;1.57;;;;;;;;;;10479227;28;20172;-79
2023/06/06 08:10:37;;;;;;;4.95;1.20;;;;;;;;;;10482007;28;20136;-76
2023/06/06 08:15:37;;;;;;;2.30;1.20;;;;;;;;;;10498794;28;20316;-75
2023/06/06 08:20:38;;;;;;;4.18;1.50;;;;;;;;;;10500164;28;20041;-75
2023/06/06 08:25:39;;;;;;;6.88;1.90;;;;;;;;;;10499089;28;20039;-75
2023/06/06 08:30:39;;;;;;;4.78;1.67;;;;;;;;;;10498571;28;20043;-73
2023/06/06 08:35:40;;;;;;;6.88;1.52;;;;;;;;;;10499120;28;20028;-74
2023/06/06 08:40:40;;;;;;;2.50;1.27;;;;;;;;;;10497073;28;20266;-76
2023/06/06 08:45:43;;;;;;;1.92;1.20;;;;;;;;;;10496064;28;20013;-74
2023/06/06 08:50:45;;;;;;;2.75;1.20;;;;;;;;;;10478258;28;20055;-75
2023/06/06 08:55:49;;;;;;;3.92;1.67;;;;;;;;;;10497849;28;20376;-75
2023/06/06 09:00:50;;;;;;;3.35;1.38;;;;;;;;;;10497312;28;20344;-74
2023/06/06 09:05:51;;;;;;;2.47;1.27;;;;;;;;;;10497501;28;20028;-74
2023/06/06 09:10:51;;;;;;;3.63;1.40;;;;;;;;;;10497915;28;20044;-74
2023/06/06 09:15:53;;;;;;;8.48;1.65;;;;;;;;;;10497718;28;20040;-73
2023/06/06 09:20:54;;;;;;;5.75;1.35;;;;;;;;;;10495639;28;20321;-75
2023/06/06 09:25:54;;;;;;;3.03;1.20;;;;;;;;;;10496882;28;20028;-74
2023/06/06 09:30:55;;;;;;;2.40;1.30;;;;;;;;;;10477969;28;20111;-75
2023/06/06 09:35:55;;;;;;;2.97;1.50;;;;;;;;;;10479958;28;20693;-75
2023/06/06 09:40:57;;;;;;;2.05;1.30;;;;;;;;;;10497906;28;20294;-75
2023/06/06 09:45:58;;;;;;;5.32;1.08;;;;;;;;;;10479975;28;20051;-75
2023/06/06 09:50:59;;;;;;;2.42;1.33;;;;;;;;;;10497805;28;20310;-74
2023/06/06 09:56:02;;;;;;;4.07;1.25;;;;;;;;;;10497480;28;20199;-75
2023/06/06 10:01:03;;;;;;;8.68;1.80;;;;;;;;;;10496359;28;20033;-75
2023/06/06 10:06:07;;;;;;;2.83;1.42;;;;;;;;;;10497646;28;20284;-74
2023/06/06 10:11:08;;;;;;;5.18;1.30;;;;;;;;;;10496587;28;20491;-75
2023/06/06 10:16:08;;;;;;;2.92;1.17;;;;;;;;;;10496612;28;20261;-75
2023/06/06 10:21:09;;;;;;;4.83;1.27;;;;;;;;;;10485644;28;20020;-74
2023/06/06 10:26:15;;;;;;;2.22;1.20;;;;;;;;;;10454809;28;20577;-75
2023/06/06 10:31:27;;;;;;;10.57;1.75;;;;;;;;;;10455167;28;20035;-75
2023/06/06 10:36:36;;;;;;;4.25;1.30;;;;;;;;;;10469713;28;20091;-75
2023/06/06 10:42:03;;;;;;;2.08;1.40;;;;;;;;;;10470349;28;20146;-74
2023/06/06 10:47:21;;;;;;;4.60;1.90;;;;;;;;;;10448696;28;20047;-76
2023/06/06 10:52:24;;;;;;;2.20;1.40;;;;;;;;;;10496605;28;20024;-76
2023/06/06 10:57:25;;;;;;;3.40;1.30;;;;;;;;;;10468831;28;20196;-77
2023/06/06 11:02:33;;;;;;;1.70;1.30;;;;;;;;;;10497110;28;20032;-76
2023/06/06 11:07:33;;;;;;;7.20;1.98;;;;;;;;;;10478877;28;20028;-76
2023/06/06 11:12:34;;;;;;;3.13;2.30;;;;;;;;;;10497423;28;20033;-77
2023/06/06 11:17:49;;;;;;;6.97;2.55;;;;;;;;;;10491845;28;20079;-76
2023/06/06 11:23:03;;;;;;;4.60;1.58;;;;;;;;;;10497808;28;20356;-77
2023/06/06 11:28:04;;;;;;;6.53;1.98;;;;;;;;;;10497189;28;20113;-77
2023/06/06 11:33:11;;;;;;;5.38;2.45;;;;;;;;;;10478381;28;20024;-77
2023/06/06 11:38:11;;;;;;;6.75;2.70;;;;;;;;;;10478661;28;20028;-76
2023/06/06 11:43:11;;;;;;;3.50;1.93;;;;;;;;;;10496498;28;20310;-77
2023/06/06 11:48:25;;;;;;;7.20;2.45;;;;;;;;;;10496344;28;20330;-75
2023/06/06 11:53:29;;;;;;;6.13;2.70;;;;;;;;;;10497011;28;20031;-76
2023/06/06 11:58:29;;;;;;;11.82;2.50;;;;;;;;;;10500954;28;20054;-75
2023/06/06 12:03:33;;;;;;;4.03;1.77;;;;;;;;;;10503323;28;20239;-77
2023/06/06 12:08:34;;;;;;;5.40;2.17;;;;;;;;;;10485645;28;20013;-75
2023/06/06 12:13:34;;;;;;;4.70;2.13;;;;;;;;;;10503369;28;20062;-76
2023/06/06 12:18:44;;;;;;;6.60;2.13;;;;;;;;;;10488473;28;20043;-76
2023/06/06 12:23:45;;;;;;;6.65;2.05;;;;;;;;;;10503011;28;20245;-76
2023/06/06 12:28:56;;;;;;;4.40;2.08;;;;;;;;;;10485605;28;20202;-75
2023/06/06 12:33:57;;;;;;;5.32;2.38;;;;;;;;;;10503396;28;20100;-76
2023/06/06 12:38:58;;;;;;;3.80;2.40;;;;;;;;;;10502859;28;20313;-78
2023/06/06 12:43:59;;;;;;;3.05;1.90;;;;;;;;;;10502584;28;20020;-76
2023/06/06 12:48:59;;;;;;;3.08;1.77;;;;;;;;;;10502684;28;20028;-78
2023/06/06 12:54:00;;;;;;;3.17;1.80;;;;;;;;;;10501423;28;20071;-78
2023/06/06 12:59:00;;;;;;;6.72;1.88;;;;;;;;;;10488766;28;20145;-77
2023/06/06 13:04:01;;;;;;;3.38;1.75;;;;;;;;;;10496087;28;20120;-75
2023/06/06 13:09:01;;;;;;;3.90;2.00;;;;;;;;;;10491849;28;20306;-77
2023/06/06 13:14:01;;;;;;;6.65;1.73;;;;;;;;;;10493238;28;20094;-76
2023/06/06 13:19:02;;;;;;;5.78;2.70;;;;;;;;;;10465320;28;20025;-75
2023/06/06 13:24:03;;;;;;;7.22;2.13;;;;;;;;;;10479291;28;20376;-74
2023/06/06 13:29:03;;;;;;;3.45;1.70;;;;;;;;;;10479982;28;20196;-76
2023/06/06 13:34:05;;;;;;;4.00;1.65;;;;;;;;;;10475243;28;20055;-75
2023/06/06 13:52:43;;;;;;;6.03;2.10;;;;;;;;;;10463500;28;20634;-80
2023/06/06 13:57:50;;;;;;;4.13;2.50;;;;;;;;;;10443621;28;20318;-78
2023/06/06 14:02:50;;;;;;;;;;;;;;;;;;10444529;28;20009;-79
2023/06/06 14:07:51;;;;;;;7.72;2.30;;;;;;;;;;10443339;28;19904;-80
2023/06/06 14:12:51;;;;;;;2.97;1.80;;;;;;;;;;10443263;28;20028;-79
2023/06/06 14:17:51;;;;;;;3.90;1.88;;;;;;;;;;10441973;28;20056;-81
2023/06/06 14:22:51;;;;;;;5.43;2.70;;;;;;;;;;10442344;28;20027;-80
2023/06/06 14:27:52;;;;;;;6.05;2.47;;;;;;;;;;10443138;28;20080;-80
2023/06/06 14:32:52;;;;;;;9.00;2.60;;;;;;;;;;10440923;28;20045;-76
2023/06/06 14:37:52;;;;;;;3.85;2.17;;;;;;;;;;10441006;28;20319;-77
2023/06/06 14:42:52;;;;;;;4.03;2.10;;;;;;;;;;10440604;28;20378;-78
2023/06/06 14:47:53;;;;;;;4.27;2.20;;;;;;;;;;10441238;28;20025;-83
2023/06/06 14:52:54;;;;;;;6.57;2.38;;;;;;;;;;10417393;28;20033;-78
2023/06/06 14:57:55;;;;;;;2.67;1.58;;;;;;;;;;10414459;28;20017;-77
2023/06/06 15:02:55;;;;;;;7.57;1.95;;;;;;;;;;10413032;28;20235;-77
2023/06/06 15:07:56;;;;;;;4.83;2.57;;;;;;;;;;10411071;28;20086;-77
2023/06/06 15:12:56;;;;;;;6.47;2.35;;;;;;;;;;10411726;28;20036;-78
2023/06/06 15:17:56;;;;;;;4.50;2.38;;;;;;;;;;10413091;28;20021;-76
2023/06/06 15:22:58;;;;;;;5.53;2.08;;;;;;;;;;10411298;28;20336;-77
2023/06/06 15:27:58;;;;;;;4.40;2.53;;;;;;;;;;10412927;28;20214;-78
2023/06/06 15:32:58;;;;;;;5.60;2.20;;;;;;;;;;10410412;28;20014;-76
2023/06/06 15:37:59;;;;;;;5.72;2.20;;;;;;;;;;10411311;28;20029;-77
2023/06/06 15:42:59;;;;;;;4.20;2.25;;;;;;;;;;10410324;28;20010;-78
2023/06/06 15:48:02;;;;;;;5.90;2.27;;;;;;;;;;10411791;28;20079;-77
2023/06/06 15:53:02;;;;;;;4.68;2.20;;;;;;;;;;10409975;28;20633;-77
2023/06/06 15:58:03;;;;;;;4.80;2.53;;;;;;;;;;10411503;28;20021;-76
2023/06/06 16:03:04;;;;;;;4.63;2.10;;;;;;;;;;10410393;28;20009;-76
2023/06/06 16:08:05;;;;;;;5.03;2.58;;;;;;;;;;10411346;28;20025;-76
2023/06/06 16:13:05;;;;;;;9.75;2.65;;;;;;;;;;10409526;28;20297;-76
2023/06/06 16:18:06;;;;;;;10.67;2.10;;;;;;;;;;10410852;28;20309;-76
2023/06/06 16:23:06;;;;;;;4.30;2.25;;;;;;;;;;10408504;28;20101;-76
2023/06/06 16:28:07;;;;;;;5.45;2.75;;;;;;;;;;10410304;28;20029;-77
2023/06/06 16:33:08;;;;;;;6.28;2.45;;;;;;;;;;10410341;28;20051;-78
2023/06/06 16:38:08;;;;;;;7.00;2.70;;;;;;;;;;10408536;28;20067;-78
2023/06/06 16:43:09;;;;;;;3.80;2.00;;;;;;;;;;10410123;28;20303;-76
2023/06/06 16:48:09;;;;;;;3.88;2.28;;;;;;;;;;10409143;28;20049;-76
2023/06/06 16:53:09;;;;;;;6.53;2.97;;;;;;;;;;10409957;28;20033;-78
2023/06/06 16:58:10;;;;;;;10.43;2.33;;;;;;;;;;10409327;28;20029;-77
2023/06/06 17:03:10;;;;;;;7.77;2.57;;;;;;;;;;10408385;28;20345;-77
2023/06/06 17:08:10;;;;;;;4.90;2.30;;;;;;;;;;10409796;28;20056;-76
2023/06/06 17:13:11;;;;;;;5.63;2.20;;;;;;;;;;10409079;28;20258;-76
2023/06/06 17:18:11;;;;;;;3.80;2.00;;;;;;;;;;10409412;28;20074;-77
2023/06/06 17:23:11;;;;;;;6.63;3.47;;;;;;;;;;10409977;28;20295;-78
2023/06/06 17:28:11;;;;;;;3.85;2.38;;;;;;;;;;10408867;28;20017;-76
2023/06/06 17:33:12;;;;;;;9.10;2.88;;;;;;;;;;10408504;28;20025;-76
2023/06/06 17:38:12;;;;;;;7.03;2.25;;;;;;;;;;10409846;28;20238;-76
2023/06/06 17:43:13;;;;;;;4.38;2.20;;;;;;;;;;10408711;28;20013;-77
2023/06/06 17:48:13;;;;;;;8.88;2.63;;;;;;;;;;10407799;28;20049;-77
2023/06/06 17:53:13;;;;;;;5.55;2.88;;;;;;;;;;10408600;28;20022;-76
2023/06/06 17:58:13;;;;;;;6.72;2.80;;;;;;;;;;10408056;28;20028;-76
2023/06/06 18:03:14;;;;;;;6.43;3.22;;;;;;;;;;10407954;28;20025;-77
2023/06/06 18:08:15;;;;;;;5.35;2.50;;;;;;;;;;10408012;28;20027;-77
2023/06/06 18:13:16;;;;;;;10.43;2.65;;;;;;;;;;10408138;28;20017;-76
2023/06/06 18:18:16;;;;;;;8.68;2.72;;;;;;;;;;10407703;28;20404;-74
2023/06/06 18:23:18;;;;;;;6.43;2.53;;;;;;;;;;10406773;28;20040;-76
2023/06/06 18:28:19;;;;;;;8.68;3.30;;;;;;;;;;10414080;28;20063;-76
2023/06/06 18:33:19;;;;;;;7.10;2.90;;;;;;;;;;10413067;28;20021;-75
2023/06/06 18:38:20;;;;;;;11.82;5.22;;;;;;;;;;10412557;28;20322;-75
2023/06/06 18:43:20;;;;;;;6.60;3.53;;;;;;;;;;10412635;28;20018;-74
2023/06/06 18:48:20;;;;;;;5.15;2.72;;;;;;;;;;10413360;28;20269;-73
2023/06/06 18:53:21;;;;;;;5.57;2.93;;;;;;;;;;10410118;28;20052;-75
2023/06/06 18:58:21;;;;;;;5.60;2.78;;;;;;;;;;10407317;28;20052;-75
2023/06/06 19:03:22;;;;;;;7.55;2.78;;;;;;;;;;10410957;28;20052;-75
2023/06/06 19:08:22;;;;;;;5.80;2.90;;;;;;;;;;10411712;28;20029;-74
2023/06/06 19:13:23;;;;;;;10.05;2.97;;;;;;;;;;10410066;28;20029;-75
2023/06/06 19:18:23;;;;;;;9.75;2.88;;;;;;;;;;10408244;28;20184;-78
2023/06/06 19:23:24;;;;;;;6.38;2.88;;;;;;;;;;10412396;28;20029;-80
2023/06/06 19:28:24;;;;;;;5.88;2.72;;;;;;;;;;10415585;28;20021;-77
2023/06/06 19:33:24;;;;;;;5.17;2.77;;;;;;;;;;10412511;28;20048;-80
2023/06/06 19:38:25;;;;;;;7.97;3.07;;;;;;;;;;10408802;28;20652;-77
2023/06/06 19:43:25;;;;;;;6.85;2.90;;;;;;;;;;10409944;28;20040;-76
2023/06/06 19:48:26;;;;;;;6.43;3.03;;;;;;;;;;10416182;28;20119;-78
2023/06/06 19:53:26;;;;;;;7.20;3.17;;;;;;;;;;10450239;28;20035;-78
2023/06/06 19:58:27;;;;;;;4.50;2.60;;;;;;;;;;10455953;28;20291;-84
2023/06/06 20:03:28;;;;;;;6.38;3.20;;;;;;;;;;10451876;28;20029;-83
2023/06/06 20:08:28;;;;;;;4.50;2.50;;;;;;;;;;10455694;28;20532;-77
2023/06/06 20:13:29;;;;;;;10.47;4.17;;;;;;;;;;10451250;28;20019;-77
2023/06/06 20:18:29;;;;;;;7.55;3.10;;;;;;;;;;10457286;28;20306;-80
2023/06/06 20:23:30;;;;;;;7.20;3.40;;;;;;;;;;10458581;28;20317;-82
2023/06/06 20:28:32;;;;;;;9.40;3.50;;;;;;;;;;10458426;28;20087;-82
2023/06/06 20:33:33;;;;;;;6.60;3.35;;;;;;;;;;10452789;28;20353;-78
2023/06/06 20:38:33;;;;;;;6.72;4.15;;;;;;;;;;10453223;28;20210;-77
2023/06/06 20:43:34;;;;;;;4.77;2.83;;;;;;;;;;10452975;28;20012;-82
2023/06/06 20:48:34;;;;;;;9.07;3.47;;;;;;;;;;10459985;28;20045;-82
2023/06/06 20:53:35;;;;;;;5.53;2.70;;;;;;;;;;10458672;28;20088;-81
2023/06/06 20:58:35;;;;;;;6.25;3.17;;;;;;;;;;10457712;28;20025;-80
2023/06/06 21:03:35;;;;;;;10.07;3.13;;;;;;;;;;10454672;28;20218;-82
2023/06/06 21:08:36;;;;;;;8.10;3.33;;;;;;;;;;10454590;28;20032;-80
2023/06/06 21:13:36;;;;;;;6.45;2.72;;;;;;;;;;10451585;28;20066;-79
2023/06/06 21:18:36;;;;;;;9.38;3.40;;;;;;;;;;10450274;28;20074;-78
2023/06/06 21:23:37;;;;;;;6.55;3.35;;;;;;;;;;10449568;28;20016;-74
2023/06/06 21:28:37;;;;;;;6.60;3.25;;;;;;;;;;10449539;28;20053;-73
2023/06/06 21:33:37;;;;;;;4.40;2.95;;;;;;;;;;10449159;28;20052;-74
2023/06/06 21:38:37;;;;;;;6.93;3.28;;;;;;;;;;10449125;28;20028;-73
2023/06/06 21:43:38;;;;;;;5.70;3.28;;;;;;;;;;10454314;28;20334;-73
2023/06/06 21:48:38;;;;;;;6.68;3.30;;;;;;;;;;10454078;28;20616;-73
2023/06/06 21:53:38;;;;;;;5.15;3.17;;;;;;;;;;10453608;28;20338;-73
2023/06/06 21:58:38;;;;;;;7.53;3.53;;;;;;;;;;10453971;28;20028;-73
2023/06/06 22:03:39;;;;;;;8.45;2.75;;;;;;;;;;10461304;28;20315;-73
2023/06/06 22:08:39;;;;;;;6.47;3.33;;;;;;;;;;10461726;28;20341;-73
2023/06/06 22:13:39;;;;;;;6.75;2.88;;;;;;;;;;10461773;28;20032;-74
2023/06/06 22:18:40;;;;;;;5.18;2.95;;;;;;;;;;10460797;28;20532;-73
2023/06/06 22:23:42;;;;;;;4.90;3.08;;;;;;;;;;10459769;28;20253;-75
2023/06/06 22:28:42;;;;;;;10.50;4.25;;;;;;;;;;10462989;28;20021;-73
2023/06/06 22:33:43;;;;;;;4.27;2.77;;;;;;;;;;10459142;28;20068;-73
2023/06/06 22:38:43;;;;;;;5.28;2.75;;;;;;;;;;10458190;28;20321;-73
2023/06/06 22:43:43;;;;;;;7.50;3.30;;;;;;;;;;10458524;28;20074;-72
2023/06/06 22:48:44;;;;;;;6.95;2.95;;;;;;;;;;10459727;28;20108;-73
2023/06/06 22:53:44;;;;;;;3.95;2.45;;;;;;;;;;10458181;28;20033;-73
2023/06/06 22:58:45;;;;;;;4.68;3.03;;;;;;;;;;10459027;28;20353;-73
2023/06/06 23:03:45;;;;;;;4.05;2.28;;;;;;;;;;10459478;28;20041;-74
2023/06/06 23:08:45;;;;;;;4.25;2.50;;;;;;;;;;10457815;28;20092;-72
2023/06/06 23:13:45;;;;;;;5.50;3.15;;;;;;;;;;10458103;28;20278;-72
2023/06/06 23:18:46;;;;;;;3.17;2.50;;;;;;;;;;10457919;28;20029;-72
2023/06/06 23:23:46;;;;;;;6.28;2.95;;;;;;;;;;10457726;28;20568;-73
2023/06/06 23:28:46;;;;;;;7.47;3.17;;;;;;;;;;10458264;28;20028;-73
2023/06/06 23:33:47;;;;;;;5.27;2.50;;;;;;;;;;10458061;28;20449;-73
2023/06/06 23:38:47;;;;;;;4.88;2.65;;;;;;;;;;10457768;28;20032;-73
2023/06/06 23:43:47;;;;;;;4.85;2.80;;;;;;;;;;10458671;28;20082;-72
2023/06/06 23:48:47;;;;;;;4.65;3.25;;;;;;;;;;10457678;28;20057;-73
2023/06/06 23:53:48;;;;;;;7.70;3.55;;;;;;;;;;10457354;28;20302;-73
2023/06/06 23:58:48;;;;;;;12.63;3.03;;;;;;;;;;10457779;28;20025;-73
